Time;durP1;ratioP1;P1;durP2;ratioP2;P2;SDS_P1;SDS_P2;PMS_P1;PMS_P2;Temp;Humidity;BMP_temperature;BMP_pressure;BME280_temperature;BME280_humidity;BME280_pressure;Samples;Min_cycle;Max_cycle;Signal;HPM_P1;HPM_P2
2021/11/06 00:01:28;;;;;;;16.33;14.73;;;6.90;71.10;;;;;;4954280;29;20593;-90
2021/11/06 00:03:54;;;;;;;15.30;13.80;;;6.90;70.40;;;;;;4958490;28;20427;-92
2021/11/06 00:06:20;;;;;;;18.30;16.30;;;6.70;70.50;;;;;;4967155;28;20223;-91
2021/11/06 00:08:45;;;;;;;16.50;14.90;;;6.80;70.60;;;;;;4960246;29;20218;-91
2021/11/06 00:11:11;;;;;;;19.53;17.17;;;6.80;70.20;;;;;;4958282;29;20636;-91
2021/11/06 00:13:37;;;;;;;17.23;15.63;;;6.80;71.00;;;;;;4958185;29;20191;-90
2021/11/06 00:16:02;;;;;;;17.70;16.00;;;6.70;70.40;;;;;;4958900;29;20197;-89
2021/11/06 00:18:28;;;;;;;16.73;15.10;;;6.70;70.00;;;;;;4957468;29;20183;-92
2021/11/06 00:20:54;;;;;;;18.50;16.70;;;6.70;70.70;;;;;;4957146;29;20285;-91
2021/11/06 00:23:19;;;;;;;16.83;15.03;;;6.70;71.10;;;;;;4943155;29;20183;-92
2021/11/06 00:25:45;;;;;;;18.40;16.60;;;6.70;70.80;;;;;;4957251;29;20207;-91
2021/11/06 00:28:11;;;;;;;18.53;16.63;;;6.60;70.80;;;;;;4957677;29;20186;-92
2021/11/06 00:30:37;;;;;;;20.53;17.37;;;6.60;71.00;;;;;;4957779;29;20213;-92
2021/11/06 00:33:03;;;;;;;19.07;17.03;;;6.70;71.10;;;;;;4957700;29;20639;-91
2021/11/06 00:35:28;;;;;;;19.23;17.33;;;6.70;71.30;;;;;;4957181;29;20191;-91
2021/11/06 00:37:58;;;;;;;20.77;18.67;;;6.70;71.60;;;;;;4957049;29;20427;-91
2021/11/06 00:40:23;;;;;;;19.50;17.60;;;6.70;71.00;;;;;;4955676;29;20278;-85
2021/11/06 00:42:49;;;;;;;20.30;18.27;;;6.60;71.20;;;;;;4953301;29;20481;-85
2021/11/06 00:45:15;;;;;;;21.30;18.40;;;6.50;72.10;;;;;;4953018;29;20598;-86
2021/11/06 00:47:42;;;;;;;21.50;18.20;;;6.50;72.90;;;;;;4952805;29;20716;-85
2021/11/06 00:50:09;;;;;;;18.70;16.70;;;6.50;73.10;;;;;;4953123;29;20188;-86
2021/11/06 00:52:35;;;;;;;19.43;16.90;;;6.50;71.60;;;;;;4953243;29;20428;-85
2021/11/06 00:55:01;;;;;;;18.47;16.43;;;6.50;70.60;;;;;;4937379;29;20435;-85
2021/11/06 00:57:28;;;;;;;19.63;17.67;;;6.50;71.70;;;;;;4938188;29;20909;-86
2021/11/06 00:59:54;;;;;;;19.83;17.10;;;6.40;71.20;;;;;;4952456;29;21008;-85
2021/11/06 01:02:19;;;;;;;20.03;18.10;;;6.40;72.10;;;;;;4953320;29;20529;-85
2021/11/06 01:04:45;;;;;;;19.43;17.47;;;6.30;72.60;;;;;;4952972;29;20211;-86
2021/11/06 01:07:11;;;;;;;20.23;18.13;;;6.40;72.60;;;;;;4952657;29;20181;-85
2021/11/06 01:09:36;;;;;;;21.93;19.73;;;6.40;72.90;;;;;;4952802;29;20218;-83
2021/11/06 01:12:02;;;;;;;22.33;18.57;;;6.30;72.40;;;;;;4952546;29;20187;-86
2021/11/06 01:14:28;;;;;;;21.93;19.87;;;6.30;72.30;;;;;;4952622;29;20249;-86
2021/11/06 01:16:54;;;;;;;19.87;17.87;;;6.30;72.20;;;;;;4951764;28;20531;-87
2021/11/06 01:19:19;;;;;;;20.37;18.27;;;6.30;72.00;;;;;;4952613;29;20184;-86
2021/11/06 01:21:45;;;;;;;21.10;18.30;;;6.40;72.10;;;;;;4952831;29;20548;-86
2021/11/06 01:24:11;;;;;;;20.40;18.37;;;6.40;72.00;;;;;;4952752;29;20357;-86
2021/11/06 01:26:36;;;;;;;21.43;19.23;;;6.30;71.90;;;;;;4952360;29;20232;-85
2021/11/06 01:29:03;;;;;;;20.33;18.20;;;6.30;71.50;;;;;;4937864;29;20188;-85
2021/11/06 01:31:29;;;;;;;20.57;18.37;;;6.20;72.20;;;;;;4951943;29;20180;-86
2021/11/06 01:33:55;;;;;;;21.27;19.07;;;6.20;71.80;;;;;;4952542;29;20455;-85
2021/11/06 01:36:21;;;;;;;20.23;18.23;;;6.20;72.00;;;;;;4952159;29;20527;-87
2021/11/06 01:38:47;;;;;;;19.87;17.97;;;6.10;72.00;;;;;;4951902;29;20428;-87
2021/11/06 01:41:13;;;;;;;21.90;19.70;;;6.10;72.30;;;;;;4952032;29;20494;-85
2021/11/06 01:43:40;;;;;;;20.50;18.50;;;6.10;71.70;;;;;;4952247;29;20184;-85
2021/11/06 01:46:09;;;;;;;19.13;17.33;;;6.10;73.30;;;;;;4937917;29;20208;-86
2021/11/06 01:48:36;;;;;;;20.73;18.73;;;6.00;73.30;;;;;;4952980;29;20431;-85
2021/11/06 01:51:04;;;;;;;21.60;19.50;;;6.10;72.40;;;;;;4952675;29;20426;-85
2021/11/06 01:53:29;;;;;;;20.60;18.60;;;6.00;72.50;;;;;;4952596;29;20416;-85
2021/11/06 01:55:58;;;;;;;21.13;19.13;;;6.00;72.80;;;;;;4952240;29;20427;-86
2021/11/06 01:58:25;;;;;;;19.53;17.63;;;5.90;72.40;;;;;;4951706;29;20231;-86
2021/11/06 02:00:51;;;;;;;20.40;18.30;;;5.90;73.20;;;;;;4951235;29;20436;-84
2021/11/06 02:03:16;;;;;;;21.60;19.40;;;5.90;73.40;;;;;;4951807;29;20416;-85
2021/11/06 02:05:43;;;;;;;20.57;18.47;;;5.80;72.40;;;;;;4951289;29;20215;-86
2021/11/06 02:08:09;;;;;;;20.20;18.20;;;5.90;72.70;;;;;;4952116;29;20180;-86
2021/11/06 02:10:35;;;;;;;21.43;19.03;;;5.90;71.40;;;;;;4936410;29;20416;-86
2021/11/06 02:13:01;;;;;;;20.67;18.67;;;5.90;71.60;;;;;;4951254;29;20780;-86
2021/11/06 02:15:27;;;;;;;19.97;18.03;;;5.80;71.20;;;;;;4936640;29;20222;-86
2021/11/06 02:17:53;;;;;;;21.03;18.80;;;5.80;71.10;;;;;;4950932;29;20265;-85
2021/11/06 02:20:21;;;;;;;20.83;18.63;;;5.80;71.60;;;;;;4951004;29;20180;-85
2021/11/06 02:22:47;;;;;;;18.93;16.93;;;5.70;72.20;;;;;;4936073;29;20894;-85
2021/11/06 02:25:14;;;;;;;19.17;17.30;;;5.70;71.70;;;;;;4950903;29;20495;-85
2021/11/06 02:27:40;;;;;;;20.37;18.53;;;5.70;72.10;;;;;;4949661;28;20459;-85
2021/11/06 02:30:09;;;;;;;19.13;17.30;;;5.80;72.00;;;;;;4950483;29;20865;-86
2021/11/06 02:32:35;;;;;;;18.87;17.07;;;5.80;71.60;;;;;;4950346;29;20758;-85
2021/11/06 02:35:02;;;;;;;21.57;19.30;;;5.80;70.70;;;;;;4935974;29;20655;-84
2021/11/06 02:37:27;;;;;;;22.03;18.27;;;5.70;71.10;;;;;;4950108;29;20188;-85
2021/11/06 02:39:53;;;;;;;21.87;18.50;;;5.70;71.10;;;;;;4935577;29;20491;-87
2021/11/06 02:42:20;;;;;;;22.13;18.90;;;5.70;71.20;;;;;;4949983;29;20218;-84
2021/11/06 02:44:47;;;;;;;18.77;16.90;;;5.70;70.80;;;;;;4935607;29;20430;-85
2021/11/06 02:47:13;;;;;;;19.70;17.70;;;5.60;70.90;;;;;;4950028;29;20420;-85
2021/11/06 02:49:39;;;;;;;19.10;17.33;;;5.60;71.40;;;;;;4950484;29;20424;-85
2021/11/06 02:52:06;;;;;;;17.60;16.00;;;5.60;71.40;;;;;;4949498;29;20412;-86
2021/11/06 02:54:32;;;;;;;18.57;16.87;;;5.50;71.00;;;;;;4950292;29;20475;-85
2021/11/06 02:56:58;;;;;;;19.80;18.00;;;5.50;71.40;;;;;;4949569;29;20439;-86
2021/11/06 02:59:24;;;;;;;16.63;14.93;;;5.50;72.00;;;;;;4949885;29;20507;-86
2021/11/06 03:01:50;;;;;;;16.90;15.20;;;5.40;70.70;;;;;;4950289;29;20411;-86
2021/11/06 03:04:16;;;;;;;19.90;17.87;;;5.30;71.60;;;;;;4950297;29;20218;-84
2021/11/06 03:06:42;;;;;;;17.57;15.90;;;5.30;71.70;;;;;;4949239;29;20502;-85
2021/11/06 03:09:08;;;;;;;18.10;16.30;;;5.30;72.40;;;;;;4949816;29;20452;-85
2021/11/06 03:11:35;;;;;;;17.83;16.17;;;5.40;72.40;;;;;;4949691;29;20423;-85
2021/11/06 03:14:03;;;;;;;18.07;16.37;;;5.30;72.90;;;;;;4935419;29;20502;-85
2021/11/06 03:16:29;;;;;;;19.93;17.93;;;5.10;72.70;;;;;;4935333;29;20817;-86
2021/11/06 03:18:54;;;;;;;18.50;16.77;;;5.10;73.90;;;;;;4950820;29;20702;-86
2021/11/06 03:21:21;;;;;;;19.37;17.57;;;5.10;73.00;;;;;;4952855;29;20446;-85
2021/11/06 03:23:47;;;;;;;18.87;17.03;;;4.90;74.30;;;;;;4959361;29;20195;-86
2021/11/06 03:26:13;;;;;;;19.83;17.83;;;4.90;75.00;;;;;;4958957;29;20471;-85
2021/11/06 03:28:39;;;;;;;19.30;17.50;;;5.10;75.00;;;;;;4950470;29;20180;-86
2021/11/06 03:31:05;;;;;;;19.93;18.03;;;5.00;74.10;;;;;;4950536;29;20791;-86
2021/11/06 03:33:30;;;;;;;21.40;19.10;;;5.10;75.30;;;;;;4934122;29;20188;-85
2021/11/06 03:35:56;;;;;;;21.80;19.50;;;5.10;74.30;;;;;;4934611;29;20924;-85
2021/11/06 03:38:22;;;;;;;22.90;20.50;;;5.00;75.00;;;;;;4949652;29;20431;-85
2021/11/06 03:40:48;;;;;;;21.53;19.50;;;4.80;77.00;;;;;;4952881;29;20549;-92
2021/11/06 03:43:14;;;;;;;21.57;19.47;;;4.70;78.10;;;;;;4953678;29;20841;-92
2021/11/06 03:45:40;;;;;;;21.87;19.87;;;4.80;79.90;;;;;;4962053;29;20463;-92
2021/11/06 03:48:06;;;;;;;28.87;20.97;;;4.90;80.90;;;;;;4959497;29;20790;-89
2021/11/06 03:50:32;;;;;;;20.97;18.77;;;4.90;77.40;;;;;;4952355;29;20176;-90
2021/11/06 03:52:57;;;;;;;22.23;19.80;;;4.90;79.40;;;;;;4951357;29;20176;-90
2021/11/06 03:55:23;;;;;;;24.43;20.57;;;4.80;79.30;;;;;;4950999;29;20733;-90
2021/11/06 03:57:49;;;;;;;23.33;20.90;;;4.80;79.30;;;;;;4951314;29;20199;-90
2021/11/06 04:00:16;;;;;;;23.43;21.10;;;4.70;81.30;;;;;;4951987;29;20282;-90
2021/11/06 04:02:44;;;;;;;23.50;21.03;;;4.80;83.10;;;;;;4935945;29;20270;-90
2021/11/06 04:05:10;;;;;;;21.97;19.70;;;4.80;83.20;;;;;;4951649;29;20472;-90
2021/11/06 04:07:35;;;;;;;22.73;20.27;;;4.80;82.90;;;;;;4950801;29;20420;-89
2021/11/06 04:10:01;;;;;;;25.00;20.30;;;4.90;82.30;;;;;;4951496;29;20428;-90
2021/11/06 04:12:27;;;;;;;26.93;21.40;;;4.90;80.60;;;;;;4951064;29;20633;-90
2021/11/06 04:14:53;;;;;;;25.63;20.83;;;4.70;78.90;;;;;;4951184;29;20530;-90
2021/11/06 04:17:18;;;;;;;21.20;19.07;;;4.70;81.40;;;;;;4951052;29;20439;-90
2021/11/06 04:19:44;;;;;;;24.63;21.73;;;4.70;81.10;;;;;;4950694;29;20656;-91
2021/11/06 04:22:10;;;;;;;32.00;22.63;;;4.70;81.80;;;;;;4951246;29;20207;-89
2021/11/06 04:24:36;;;;;;;23.55;20.95;;;4.80;81.80;;;;;;4950461;29;20910;-89
2021/11/06 04:27:03;;;;;;;25.90;23.20;;;4.60;82.40;;;;;;4951140;29;20208;-89
2021/11/06 04:29:29;;;;;;;23.00;20.70;;;4.80;84.00;;;;;;4951689;29;20187;-91
2021/11/06 04:31:54;;;;;;;23.43;20.93;;;4.80;83.00;;;;;;4951054;29;20428;-89
2021/11/06 04:34:20;;;;;;;23.63;21.30;;;4.80;82.60;;;;;;4950461;29;20989;-90
2021/11/06 04:36:46;;;;;;;24.93;22.43;;;4.90;81.10;;;;;;4950821;29;20175;-90
2021/11/06 04:39:12;;;;;;;23.37;21.17;;;4.90;81.70;;;;;;4951596;29;20599;-90
2021/11/06 04:41:38;;;;;;;22.53;20.50;;;4.90;81.00;;;;;;4951204;29;20184;-90
2021/11/06 04:44:03;;;;;;;23.03;20.60;;;4.80;81.20;;;;;;4950147;29;20180;-91
2021/11/06 04:46:29;;;;;;;23.60;21.30;;;5.00;80.50;;;;;;4950519;29;20460;-91
2021/11/06 04:48:55;;;;;;;22.37;20.03;;;5.00;79.90;;;;;;4951399;29;20443;-90
2021/11/06 04:51:21;;;;;;;23.27;20.73;;;5.00;80.10;;;;;;4934329;29;20184;-84
2021/11/06 04:53:48;;;;;;;20.97;18.93;;;4.90;80.20;;;;;;4951073;29;20490;-84
2021/11/06 04:56:14;;;;;;;22.77;20.57;;;5.00;80.70;;;;;;4950700;29;20514;-85
2021/11/06 04:58:40;;;;;;;21.80;19.50;;;5.00;80.70;;;;;;4951011;29;20542;-85
2021/11/06 05:01:06;;;;;;;24.53;21.23;;;4.80;79.70;;;;;;4935392;29;20420;-84
2021/11/06 05:03:32;;;;;;;21.87;19.57;;;4.80;81.20;;;;;;4951923;29;20947;-85
2021/11/06 05:05:58;;;;;;;18.03;16.33;;;4.80;80.80;;;;;;4951360;29;20474;-84
2021/11/06 05:08:24;;;;;;;17.63;16.00;;;4.90;79.60;;;;;;4951763;29;20700;-84
2021/11/06 05:10:49;;;;;;;17.23;15.53;;;4.90;76.60;;;;;;4951262;29;20176;-85
2021/11/06 05:13:15;;;;;;;17.63;16.03;;;4.90;73.80;;;;;;4951279;29;20416;-84
2021/11/06 05:15:41;;;;;;;16.20;14.70;;;4.90;74.10;;;;;;4950816;29;20725;-84
2021/11/06 05:18:09;;;;;;;18.70;16.70;;;4.90;73.70;;;;;;4951219;29;20518;-85
2021/11/06 05:20:37;;;;;;;17.70;16.00;;;4.90;73.30;;;;;;4952874;29;20939;-90
2021/11/06 05:23:02;;;;;;;17.50;15.90;;;4.90;72.50;;;;;;4954045;29;20431;-90
2021/11/06 05:25:28;;;;;;;18.33;16.63;;;4.90;72.60;;;;;;4939382;29;20584;-90
2021/11/06 05:27:54;;;;;;;18.37;16.53;;;4.90;71.40;;;;;;4953923;29;20439;-90
2021/11/06 05:30:20;;;;;;;16.80;15.30;;;4.90;72.50;;;;;;4953846;29;20184;-90
2021/11/06 05:32:45;;;;;;;17.23;15.73;;;4.70;71.90;;;;;;4953821;29;20553;-85
2021/11/06 05:35:12;;;;;;;19.50;17.50;;;4.60;72.40;;;;;;4951560;29;20428;-84
2021/11/06 05:37:38;;;;;;;18.17;16.47;;;4.60;73.90;;;;;;4951572;29;20190;-84
2021/11/06 05:40:09;;;;;;;17.80;16.30;;;4.70;72.70;;;;;;4952058;29;20428;-84
2021/11/06 05:42:35;;;;;;;19.43;17.40;;;4.70;73.20;;;;;;4951704;29;20180;-84
2021/11/06 05:45:03;;;;;;;18.93;17.13;;;4.70;73.50;;;;;;4951713;29;20483;-84
2021/11/06 05:47:28;;;;;;;18.17;16.47;;;4.60;74.10;;;;;;4951465;29;20645;-84
2021/11/06 05:49:54;;;;;;;17.53;15.83;;;4.70;73.30;;;;;;4951397;29;20442;-84
2021/11/06 05:52:20;;;;;;;18.07;16.33;;;4.70;73.30;;;;;;4952360;29;20234;-83
2021/11/06 05:54:46;;;;;;;16.07;14.60;;;4.70;73.10;;;;;;4952440;29;20191;-83
2021/11/06 05:57:11;;;;;;;17.17;15.57;;;4.70;72.80;;;;;;4951593;29;20200;-84
2021/11/06 05:59:37;;;;;;;17.70;16.00;;;4.70;72.90;;;;;;4952111;29;20269;-83
2021/11/06 06:02:03;;;;;;;17.10;15.30;;;4.80;72.60;;;;;;4951647;28;20180;-82
2021/11/06 06:04:28;;;;;;;18.40;16.70;;;4.70;72.40;;;;;;4935729;29;20188;-85
2021/11/06 06:06:54;;;;;;;14.33;13.07;;;4.70;72.20;;;;;;4950560;29;20236;-83
2021/11/06 06:09:20;;;;;;;16.77;15.27;;;4.70;71.00;;;;;;4951752;29;20188;-84
2021/11/06 06:11:45;;;;;;;14.10;12.90;;;4.70;70.20;;;;;;4951571;29;20180;-83
2021/11/06 06:14:11;;;;;;;14.07;12.80;;;4.60;69.70;;;;;;4951640;29;20180;-85
2021/11/06 06:16:37;;;;;;;12.97;11.77;;;4.60;68.00;;;;;;4952015;29;20655;-84
2021/11/06 06:19:03;;;;;;;13.60;12.40;;;4.60;68.90;;;;;;4951522;29;20271;-84
2021/11/06 06:21:29;;;;;;;13.53;12.33;;;4.50;67.80;;;;;;4951239;29;20184;-82
2021/11/06 06:23:54;;;;;;;12.37;11.33;;;4.50;68.60;;;;;;4951538;29;20518;-84
2021/11/06 06:26:20;;;;;;;12.07;10.97;;;4.50;68.60;;;;;;4936802;29;20558;-86
2021/11/06 06:28:46;;;;;;;15.10;13.70;;;4.40;68.20;;;;;;4950844;29;20181;-85
2021/11/06 06:31:12;;;;;;;13.67;12.47;;;4.40;69.40;;;;;;4950896;29;20244;-84
2021/11/06 06:33:40;;;;;;;15.00;13.60;;;4.50;70.00;;;;;;4950690;29;20424;-83
2021/11/06 06:36:05;;;;;;;14.87;13.47;;;4.60;70.20;;;;;;4936021;29;20188;-84
2021/11/06 06:38:33;;;;;;;14.80;13.60;;;4.40;69.20;;;;;;4935573;29;20442;-83
2021/11/06 06:40:59;;;;;;;13.43;12.20;;;4.50;69.50;;;;;;4950583;29;20192;-83
2021/11/06 06:43:25;;;;;;;11.20;10.30;;;4.30;68.70;;;;;;4950739;29;20428;-83
2021/11/06 06:45:51;;;;;;;11.23;10.30;;;4.20;68.10;;;;;;4934974;29;20474;-83
2021/11/06 06:48:17;;;;;;;12.00;10.97;;;4.10;68.40;;;;;;4950315;29;20424;-83
2021/11/06 06:50:47;;;;;;;12.80;11.60;;;4.00;69.70;;;;;;4950038;29;20523;-82
2021/11/06 06:53:17;;;;;;;13.70;12.40;;;4.10;70.50;;;;;;4950816;29;20988;-82
2021/11/06 06:55:43;;;;;;;12.43;11.20;;;4.10;69.20;;;;;;4950100;29;20492;-82
2021/11/06 06:58:09;;;;;;;12.50;11.40;;;4.10;69.90;;;;;;4950050;29;20538;-83
2021/11/06 07:00:35;;;;;;;12.70;11.57;;;4.10;69.40;;;;;;4950228;29;20519;-82
2021/11/06 07:03:01;;;;;;;10.80;9.90;;;3.80;69.20;;;;;;4934511;29;20482;-82
2021/11/06 07:05:27;;;;;;;12.60;11.40;;;3.80;70.60;;;;;;4950047;29;20558;-82
2021/11/06 07:07:56;;;;;;;10.80;9.90;;;3.80;70.10;;;;;;4934177;29;20556;-83
2021/11/06 07:10:22;;;;;;;10.67;9.77;;;3.70;68.90;;;;;;4938912;29;20905;-83
2021/11/06 07:12:49;;;;;;;11.10;10.20;;;3.70;69.70;;;;;;4934598;29;20829;-83
2021/11/06 07:15:14;;;;;;;9.63;8.73;;;3.60;70.00;;;;;;4949315;29;20935;-83
2021/11/06 07:17:40;;;;;;;10.63;9.73;;;3.70;70.10;;;;;;4949874;29;20455;-83
2021/11/06 07:20:07;;;;;;;10.00;9.17;;;3.70;69.90;;;;;;4949880;29;20196;-83
2021/11/06 07:22:40;;;;;;;11.83;10.73;;;3.60;69.90;;;;;;4949865;29;20180;-83
2021/11/06 07:25:07;;;;;;;11.53;10.53;;;3.80;70.20;;;;;;4950311;29;20487;-83
2021/11/06 07:27:34;;;;;;;11.17;10.17;;;3.90;70.10;;;;;;4949603;29;20424;-83
2021/11/06 07:30:00;;;;;;;11.40;10.40;;;4.00;69.30;;;;;;4949171;29;20436;-85
2021/11/06 07:32:26;;;;;;;11.50;10.60;;;4.00;68.80;;;;;;4931253;29;20994;-85
2021/11/06 07:34:51;;;;;;;10.97;9.97;;;3.80;68.40;;;;;;4949178;29;20475;-86
2021/11/06 07:37:17;;;;;;;11.37;10.37;;;4.00;70.30;;;;;;4950712;29;20487;-84
2021/11/06 07:39:43;;;;;;;12.13;11.10;;;4.10;68.30;;;;;;4950860;29;20180;-84
2021/11/06 07:42:08;;;;;;;11.70;10.50;;;4.20;66.90;;;;;;4949516;29;20191;-84
2021/11/06 07:44:34;;;;;;;11.97;10.87;;;4.20;68.20;;;;;;4949574;29;20180;-84
2021/11/06 07:47:00;;;;;;;11.97;10.87;;;4.40;68.30;;;;;;4949855;29;20302;-83
2021/11/06 07:49:26;;;;;;;12.73;11.43;;;4.40;68.30;;;;;;4950267;29;20219;-83
2021/11/06 07:51:57;;;;;;;13.10;11.80;;;4.50;69.00;;;;;;4949821;29;20419;-82
2021/11/06 07:54:24;;;;;;;13.03;11.77;;;4.50;69.30;;;;;;4949904;29;20416;-83
2021/11/06 07:56:49;;;;;;;12.90;10.83;;;4.50;69.00;;;;;;4949392;29;20963;-83
2021/11/06 07:59:15;;;;;;;13.80;12.40;;;4.30;69.30;;;;;;4949827;29;20431;-83
2021/11/06 08:01:41;;;;;;;11.20;10.10;;;4.30;70.80;;;;;;4949874;29;20188;-84
2021/11/06 08:04:06;;;;;;;13.90;12.13;;;4.40;70.30;;;;;;4949813;29;20239;-83
2021/11/06 08:06:32;;;;;;;13.27;11.87;;;4.50;69.20;;;;;;4950623;29;20215;-92
2021/11/06 08:08:58;;;;;;;19.17;13.40;;;4.50;70.00;;;;;;4953273;29;20668;-93
2021/11/06 08:11:24;;;;;;;15.53;13.93;;;4.60;70.00;;;;;;4953630;29;20183;-91
2021/11/06 08:13:53;;;;;;;14.00;12.70;;;4.70;69.80;;;;;;4953487;29;20184;-92
2021/11/06 08:16:19;;;;;;;14.70;11.83;;;4.60;69.30;;;;;;4952961;29;20459;-92
2021/11/06 08:18:45;;;;;;;14.73;13.23;;;4.50;70.80;;;;;;4953801;29;20431;-92
2021/11/06 08:21:11;;;;;;;14.80;12.67;;;4.50;71.10;;;;;;4938154;29;20849;-91
2021/11/06 08:23:37;;;;;;;14.23;12.73;;;4.60;71.40;;;;;;4952049;29;20415;-83
2021/11/06 08:26:04;;;;;;;16.77;13.47;;;4.50;71.40;;;;;;4952603;28;20232;-84
2021/11/06 08:28:29;;;;;;;16.63;12.83;;;4.60;71.40;;;;;;4953695;29;20416;-84
2021/11/06 08:30:55;;;;;;;15.60;13.20;;;4.60;72.30;;;;;;4953557;29;20435;-89
2021/11/06 08:33:21;;;;;;;17.13;13.33;;;4.70;71.20;;;;;;4955348;29;20184;-90
2021/11/06 08:35:47;;;;;;;15.33;12.27;;;4.80;69.90;;;;;;4953621;29;20274;-84
2021/11/06 08:38:15;;;;;;;19.27;14.73;;;4.80;71.00;;;;;;4938035;29;20506;-86
2021/11/06 08:40:42;;;;;;;16.10;12.80;;;4.90;70.20;;;;;;4954196;29;20470;-84
2021/11/06 08:43:08;;;;;;;14.20;11.57;;;5.00;69.60;;;;;;4953291;29;20442;-83
2021/11/06 08:45:34;;;;;;;12.63;10.53;;;5.10;68.00;;;;;;4953784;29;20472;-84
2021/11/06 08:48:00;;;;;;;13.57;12.10;;;5.10;68.30;;;;;;4956728;29;20455;-88
2021/11/06 08:50:28;;;;;;;16.40;14.00;;;5.20;67.80;;;;;;4957124;29;20184;-85
2021/11/06 08:52:57;;;;;;;12.50;11.10;;;5.10;67.70;;;;;;4946367;29;20172;-93
2021/11/06 08:55:24;;;;;;;16.40;11.90;;;5.20;67.90;;;;;;4962378;29;20495;-94
2021/11/06 08:57:50;;;;;;;16.60;13.20;;;5.40;70.50;;;;;;4956659;29;20543;-93
2021/11/06 09:00:31;;;;;;;13.80;11.60;;;5.30;67.90;;;;;;4941307;29;20447;-92
2021/11/06 09:02:58;;;;;;;13.83;11.10;;;5.70;70.90;;;;;;4939944;29;20175;-88
2021/11/06 09:05:24;;;;;;;14.23;11.73;;;6.10;70.40;;;;;;4920713;29;20819;-91
2021/11/06 09:07:50;;;;;;;15.30;11.73;;;5.70;66.50;;;;;;4954775;29;20483;-92
2021/11/06 09:10:18;;;;;;;15.53;12.90;;;5.60;66.80;;;;;;4940100;29;20639;-92
2021/11/06 09:12:43;;;;;;;13.50;10.90;;;5.40;68.00;;;;;;4954712;29;20956;-91
2021/11/06 09:15:09;;;;;;;13.20;11.87;;;5.40;68.60;;;;;;4954777;29;20428;-91
2021/11/06 09:17:36;;;;;;;11.87;10.50;;;5.30;68.40;;;;;;4954512;29;20924;-92
2021/11/06 09:20:04;;;;;;;13.80;11.70;;;5.40;68.10;;;;;;4937952;29;20428;-90
2021/11/06 09:22:30;;;;;;;13.87;11.80;;;5.50;68.10;;;;;;4955205;29;20487;-90
2021/11/06 09:24:55;;;;;;;15.13;12.20;;;5.50;68.10;;;;;;4953649;29;20416;-90
2021/11/06 09:27:21;;;;;;;14.30;11.67;;;5.40;68.20;;;;;;4952549;29;20180;-85
2021/11/06 09:29:50;;;;;;;13.43;11.97;;;5.40;68.80;;;;;;4937865;29;20649;-84
2021/11/06 09:32:16;;;;;;;14.10;11.57;;;5.40;69.50;;;;;;4952135;29;20507;-85
2021/11/06 09:34:42;;;;;;;12.73;11.20;;;5.50;68.10;;;;;;4952674;29;20627;-84
2021/11/06 09:37:09;;;;;;;13.53;12.13;;;5.50;67.90;;;;;;4952814;28;20511;-86
2021/11/06 09:39:35;;;;;;;13.60;12.07;;;5.50;68.80;;;;;;4953211;29;20291;-89
2021/11/06 09:42:02;;;;;;;14.20;10.83;;;5.50;68.50;;;;;;4953373;29;20464;-88
2021/11/06 09:44:35;;;;;;;14.57;12.13;;;5.50;68.10;;;;;;4939385;29;20431;-88
2021/11/06 09:47:05;;;;;;;15.33;12.70;;;5.60;68.50;;;;;;4954205;29;20554;-89
2021/11/06 09:49:31;;;;;;;15.73;13.47;;;5.60;68.20;;;;;;4954272;29;20856;-88
2021/11/06 09:51:57;;;;;;;12.97;11.60;;;5.60;68.20;;;;;;4954329;29;20771;-89
2021/11/06 09:54:23;;;;;;;13.40;11.80;;;5.60;68.20;;;;;;4953786;29;20467;-89
2021/11/06 09:56:48;;;;;;;14.97;13.03;;;5.80;68.40;;;;;;4953295;29;20447;-85
2021/11/06 09:59:14;;;;;;;14.70;13.10;;;5.80;69.20;;;;;;4952439;29;20221;-85
2021/11/06 10:01:39;;;;;;;15.23;12.83;;;5.90;67.90;;;;;;4952482;29;20584;-85
2021/11/06 10:04:09;;;;;;;14.37;12.83;;;6.00;68.40;;;;;;4952654;29;20188;-85
2021/11/06 10:06:39;;;;;;;15.40;13.80;;;6.00;68.60;;;;;;4952903;29;20208;-86
2021/11/06 10:09:11;;;;;;;19.30;14.00;;;6.10;67.60;;;;;;4938128;29;20492;-86
2021/11/06 10:11:39;;;;;;;14.57;12.93;;;6.10;68.00;;;;;;4952759;29;20431;-85
2021/11/06 10:14:08;;;;;;;14.00;12.57;;;6.20;68.00;;;;;;4951888;29;20515;-85
2021/11/06 10:16:42;;;;;;;14.70;12.00;;;6.20;68.70;;;;;;4952219;29;20509;-85
2021/11/06 10:19:21;;;;;;;14.67;13.17;;;6.30;66.90;;;;;;4936353;29;20929;-84
2021/11/06 10:22:04;;;;;;;15.80;14.13;;;6.30;67.00;;;;;;4951783;29;20444;-85
2021/11/06 10:24:48;;;;;;;13.87;12.43;;;6.30;67.10;;;;;;4951281;29;20913;-85
2021/11/06 10:27:24;;;;;;;14.73;13.20;;;6.30;68.10;;;;;;4951481;29;20490;-85
2021/11/06 10:30:03;;;;;;;15.77;13.67;;;6.40;68.40;;;;;;4952290;29;20415;-87
2021/11/06 10:32:29;;;;;;;15.23;13.60;;;6.40;67.90;;;;;;4952794;29;20849;-85
2021/11/06 10:35:19;;;;;;;15.60;13.93;;;6.40;67.10;;;;;;4936011;29;20451;-86
2021/11/06 10:37:47;;;;;;;15.30;13.70;;;6.40;67.90;;;;;;4951868;29;20455;-85
2021/11/06 10:40:16;;;;;;;18.33;15.60;;;6.50;68.20;;;;;;4951429;29;20419;-85
2021/11/06 10:42:49;;;;;;;18.93;15.47;;;6.50;68.70;;;;;;4951260;29;20540;-85
2021/11/06 10:45:17;;;;;;;19.80;15.07;;;6.50;68.70;;;;;;4935142;29;20499;-84
2021/11/06 10:47:50;;;;;;;18.90;15.47;;;6.60;69.10;;;;;;4950564;29;20420;-85
2021/11/06 10:50:15;;;;;;;18.27;16.27;;;6.70;69.20;;;;;;4935459;29;20491;-84
2021/11/06 10:52:47;;;;;;;22.10;17.73;;;6.70;68.20;;;;;;4950775;29;20912;-85
2021/11/06 10:55:13;;;;;;;22.23;16.90;;;6.80;69.30;;;;;;4936692;29;20548;-85
2021/11/06 10:57:39;;;;;;;17.83;15.87;;;6.70;68.30;;;;;;4951345;29;20455;-85
2021/11/06 11:00:22;;;;;;;17.60;15.70;;;6.70;69.20;;;;;;4951246;29;20181;-86
2021/11/06 11:02:48;;;;;;;16.70;14.97;;;6.80;68.70;;;;;;4954330;29;20217;-89
2021/11/06 11:05:35;;;;;;;18.77;16.47;;;6.80;68.80;;;;;;4954022;29;20549;-92
2021/11/06 11:08:08;;;;;;;19.47;16.57;;;6.90;67.70;;;;;;4952655;29;20183;-92
2021/11/06 11:10:36;;;;;;;20.63;17.10;;;6.80;67.70;;;;;;4953487;29;20422;-92
2021/11/06 11:13:15;;;;;;;22.80;18.10;;;6.90;68.10;;;;;;4935192;29;20413;-85
2021/11/06 11:16:01;;;;;;;;;;;;;;;;;;;;;
2021/11/06 11:18:35;;;;;;;17.83;16.03;;;6.90;67.40;;;;;;4936559;29;20434;-85
2021/11/06 11:21:10;;;;;;;20.30;18.17;;;6.90;67.00;;;;;;4934690;29;20474;-86
2021/11/06 11:23:36;;;;;;;20.77;17.70;;;7.00;68.10;;;;;;4935329;29;20462;-84
2021/11/06 11:26:01;;;;;;;21.00;18.60;;;7.10;68.30;;;;;;4935434;29;20500;-84
2021/11/06 11:28:27;;;;;;;20.10;17.37;;;7.10;67.70;;;;;;4933005;29;20451;-84
2021/11/06 11:30:54;;;;;;;19.00;16.07;;;7.20;67.40;;;;;;4933710;29;20239;-86
2021/11/06 11:33:20;;;;;;;19.80;17.67;;;7.30;66.90;;;;;;4934627;29;20500;-89
2021/11/06 11:35:46;;;;;;;19.83;17.20;;;7.40;67.60;;;;;;4934914;29;20790;-86
2021/11/06 11:38:13;;;;;;;19.50;17.47;;;7.50;66.80;;;;;;4934867;29;20893;-88
2021/11/06 11:40:47;;;;;;;20.70;17.13;;;7.50;66.30;;;;;;4933374;29;20426;-87
2021/11/06 11:43:24;;;;;;;21.77;18.00;;;7.60;66.50;;;;;;4934852;29;20411;-89
2021/11/06 11:46:00;;;;;;;21.87;18.53;;;7.70;65.50;;;;;;4934488;29;20459;-87
2021/11/06 11:48:27;;;;;;;21.10;18.17;;;7.70;64.50;;;;;;4935527;29;20498;-83
2021/11/06 11:50:59;;;;;;;20.87;18.67;;;7.60;64.80;;;;;;4932931;29;20415;-86
2021/11/06 11:53:34;;;;;;;20.50;15.67;;;7.60;65.60;;;;;;4933619;29;20443;-86
2021/11/06 11:56:13;;;;;;;19.40;17.30;;;7.60;65.60;;;;;;4931700;29;20430;-85
2021/11/06 11:58:40;;;;;;;18.80;16.90;;;7.70;65.80;;;;;;4949592;29;20430;-88
2021/11/06 12:01:15;;;;;;;20.20;18.20;;;7.60;65.00;;;;;;4952306;28;20967;-86
2021/11/06 12:03:45;;;;;;;20.33;18.20;;;7.60;64.80;;;;;;4953170;29;20506;-84
2021/11/06 12:06:49;;;;;;;20.13;17.67;;;7.60;65.00;;;;;;4954708;29;20467;-84
2021/11/06 12:09:14;;;;;;;22.10;17.43;;;7.70;64.60;;;;;;4893747;29;20417;-84
2021/11/06 12:11:51;;;;;;;18.10;16.13;;;7.60;63.80;;;;;;4877457;29;20430;-83
2021/11/06 12:14:28;;;;;;;19.50;17.40;;;7.60;64.50;;;;;;4908547;29;20194;-84
2021/11/06 12:16:57;;;;;;;22.00;17.83;;;7.60;64.60;;;;;;4936684;29;20828;-84
2021/11/06 12:19:41;;;;;;;19.33;17.40;;;7.60;64.90;;;;;;4937319;29;20420;-84
2021/11/06 12:22:27;;;;;;;21.57;18.53;;;7.60;65.50;;;;;;4938395;29;20423;-86
2021/11/06 12:25:16;;;;;;;22.43;18.23;;;7.70;65.00;;;;;;4942780;29;20846;-85
2021/11/06 12:27:50;;;;;;;20.90;18.60;;;7.60;64.50;;;;;;4938110;29;20427;-85
2021/11/06 12:30:29;;;;;;;20.80;17.50;;;7.60;65.30;;;;;;4937164;29;20777;-86
2021/11/06 12:32:59;;;;;;;21.83;18.83;;;7.60;64.50;;;;;;4939912;29;20853;-91
2021/11/06 12:35:27;;;;;;;25.43;21.83;;;7.50;64.90;;;;;;4942114;29;20450;-91
2021/11/06 12:38:01;;;;;;;23.83;20.50;;;7.60;65.60;;;;;;4940825;29;20780;-92
2021/11/06 12:40:52;;;;;;;25.80;21.87;;;7.70;65.90;;;;;;4941094;29;20479;-94